Portada
METAR-TAF:

METAR-TAF

Aeropuertos :

Brookings, Dakota del Sur, Estados Unidos

latitud: 44-18N, longitud: 096-49W, altitud: 502 m

Observación

El informe se hizo hace 1 hora y 0 minutos, a las 23:56 UTC
Viento 9 kt del noroeste
Temperatura 11°C
Humedad 37%
Presión 1018 hPa
Visibilidad: 16.1 km
Cielo despejado

METAR: KBKX 292356Z AUTO 31009KT 10SM CLR 11/M03 A3005 RMK AO2 SLP198 T01111033 10128 20089 53021

Hora: 19:56 (00:56 UTC)


TAF: falta

Observaciones y pronósticos meteorológicos de más de 4000 aeropuertos (mensajes METAR y TAF).

Los puntos amarillos y rojos representan las estaciones disponibles.

Ponga el ratón en el punto deseado para ver el nombre de la estación.

Haga clic para ver las observaciones y los pronósticos meteorológicos.

Para cambiar el mapa : haga clic en los botones verdes con una cruz de color negro para hacer un zoom, en el botón verde con un guión para alejar o en las flechas verdes para mapas adyacentes.


METAR-TAF: